createdAt,value
2018-05-10T00:00:36.863Z,39.14
2018-05-10T00:01:46.596Z,39.14
2018-05-10T00:02:56.029Z,39.24
2018-05-10T00:04:05.458Z,39.04
2018-05-10T00:05:14.881Z,39.14
2018-05-10T00:06:24.065Z,39.14
2018-05-10T00:07:33.829Z,39.14
2018-05-10T00:08:43.026Z,39.04
2018-05-10T00:09:52.214Z,39.34
2018-05-10T00:11:01.927Z,39.24
2018-05-10T00:12:11.652Z,39.34
2018-05-10T00:13:20.855Z,39.04
2018-05-10T00:14:30.261Z,39.34
2018-05-10T00:15:39.707Z,39.14
2018-05-10T00:16:48.623Z,39.14
2018-05-10T00:17:58.316Z,39.34
2018-05-10T00:19:07.762Z,39.24
2018-05-10T00:20:17.229Z,39.24
2018-05-10T00:21:26.433Z,39.04
2018-05-10T00:22:35.644Z,39.14
2018-05-10T00:23:44.814Z,39.04
2018-05-10T00:24:54.007Z,39.82
2018-05-10T00:26:03.200Z,39.24
2018-05-10T00:27:12.654Z,39.14
2018-05-10T00:28:22.410Z,39.04
2018-05-10T00:29:31.870Z,39.82
2018-05-10T00:30:41.069Z,39.34
2018-05-10T00:31:50.538Z,39.43
2018-05-10T00:32:59.509Z,39.24
2018-05-10T00:34:08.940Z,39.24
2018-05-10T00:35:18.636Z,39.14
2018-05-10T00:36:28.347Z,39.72
2018-05-10T00:37:38.325Z,39.82
2018-05-10T00:38:47.759Z,39.43
2018-05-10T00:39:56.962Z,39.82
2018-05-10T00:41:06.408Z,39.72
2018-05-10T00:42:15.565Z,39.82
2018-05-10T00:43:25.282Z,39.72
2018-05-10T00:44:34.468Z,39.82
2018-05-10T00:45:43.962Z,39.62
2018-05-10T00:46:53.407Z,39.82
2018-05-10T00:48:03.397Z,39.82
2018-05-10T00:49:13.407Z,39.72
2018-05-10T00:50:22.871Z,39.62
2018-05-10T00:51:32.303Z,39.82
2018-05-10T00:52:41.506Z,39.72
2018-05-10T00:53:51.226Z,39.82
2018-05-10T00:55:00.679Z,39.82
2018-05-10T00:56:10.654Z,39.72
2018-05-10T00:57:20.082Z,39.82
2018-05-10T00:58:29.789Z,39.82
2018-05-10T00:59:39.303Z,39.24
2018-05-10T01:00:48.748Z,39.82
2018-05-10T01:01:57.946Z,39.43
2018-05-10T01:03:07.891Z,39.72
2018-05-10T01:04:17.328Z,39.72
2018-05-10T01:05:26.767Z,39.72
2018-05-10T01:06:35.941Z,39.72
2018-05-10T01:07:45.634Z,39.72
2018-05-10T01:08:55.425Z,39.82
2018-05-10T01:10:04.332Z,39.72
2018-05-10T01:11:13.513Z,39.72
2018-05-10T01:12:22.435Z,39.62
2018-05-10T01:13:31.635Z,39.92
2018-05-10T01:14:40.840Z,39.72
2018-05-10T01:15:50.249Z,39.72
2018-05-10T01:17:00.189Z,39.72
2018-05-10T01:18:09.855Z,39.53
2018-05-10T01:19:18.791Z,39.72
2018-05-10T01:20:28.210Z,39.72
2018-05-10T01:21:37.128Z,39.72
2018-05-10T01:22:46.540Z,39.72
2018-05-10T01:23:56.226Z,39.72
2018-05-10T01:25:05.903Z,39.62
2018-05-10T01:26:15.604Z,39.62
2018-05-10T01:27:24.762Z,39.62
2018-05-10T01:28:34.177Z,39.62
2018-05-10T01:29:43.395Z,39.62
2018-05-10T01:30:52.570Z,39.62
2018-05-10T01:32:01.996Z,39.62
2018-05-10T01:33:11.429Z,39.62
2018-05-10T01:34:20.601Z,39.72
2018-05-10T01:35:30.642Z,39.53
2018-05-10T01:36:39.814Z,39.62
2018-05-10T01:37:49.006Z,39.62
2018-05-10T01:38:58.949Z,39.72
2018-05-10T01:40:08.126Z,39.72
2018-05-10T01:41:17.290Z,39.53
2018-05-10T01:42:27.005Z,39.72
2018-05-10T01:43:36.228Z,39.72
2018-05-10T01:44:46.168Z,39.62
2018-05-10T01:45:55.618Z,39.72
2018-05-10T01:47:05.335Z,39.72
2018-05-10T01:48:15.298Z,39.72
2018-05-10T01:49:24.970Z,39.72
2018-05-10T01:50:34.149Z,39.62
2018-05-10T01:51:43.840Z,39.62
2018-05-10T01:52:53.776Z,39.72
2018-05-10T01:54:03.470Z,39.53
2018-05-10T01:55:13.419Z,39.62
2018-05-10T01:56:22.878Z,39.82
2018-05-10T01:57:31.790Z,39.62
2018-05-10T01:58:41.253Z,39.53
2018-05-10T01:59:50.929Z,39.72
2018-05-10T02:00:59.845Z,39.53
2018-05-10T02:02:09.535Z,39.43
2018-05-10T02:03:18.733Z,39.62
2018-05-10T02:04:28.169Z,39.72
2018-05-10T02:05:37.612Z,39.53
2018-05-10T02:06:47.567Z,39.43
2018-05-10T02:07:57.008Z,39.43
2018-05-10T02:09:06.729Z,39.62
2018-05-10T02:10:16.847Z,39.62
2018-05-10T02:11:26.278Z,39.43
2018-05-10T02:12:35.969Z,39.43
2018-05-10T02:13:45.131Z,39.62
2018-05-10T02:14:54.573Z,39.53
2018-05-10T02:16:04.022Z,39.72
2018-05-10T02:17:13.472Z,39.62
2018-05-10T02:18:23.161Z,39.62
2018-05-10T02:19:32.860Z,39.53
2018-05-10T02:20:42.601Z,39.53
2018-05-10T02:21:52.312Z,39.62
2018-05-10T02:23:01.749Z,39.43
2018-05-10T02:24:11.104Z,39.53
2018-05-10T02:25:20.343Z,39.53
2018-05-10T02:26:29.022Z,39.62
2018-05-10T02:27:37.966Z,39.53
2018-05-10T02:28:47.411Z,39.53
2018-05-10T02:29:57.351Z,39.62
2018-05-10T02:31:06.764Z,39.62
2018-05-10T02:32:16.487Z,39.62
2018-05-10T02:33:25.909Z,39.53
2018-05-10T02:34:36.149Z,39.53
2018-05-10T02:35:45.602Z,39.62
2018-05-10T02:36:55.277Z,39.82
2018-05-10T02:38:04.982Z,39.53
2018-05-10T02:39:14.174Z,39.72
2018-05-10T02:40:23.908Z,39.82
2018-05-10T02:41:33.595Z,39.72
2018-05-10T02:42:43.051Z,39.72
2018-05-10T02:43:52.495Z,39.72
2018-05-10T02:45:01.532Z,39.62
2018-05-10T02:46:11.440Z,39.72
2018-05-10T02:47:21.124Z,39.72
2018-05-10T02:48:30.863Z,39.62
2018-05-10T02:49:40.593Z,39.62
2018-05-10T02:50:50.027Z,39.53
2018-05-10T02:51:59.982Z,39.62
2018-05-10T02:53:09.694Z,39.72
2018-05-10T02:54:19.509Z,39.72
2018-05-10T02:55:28.997Z,39.53
2018-05-10T02:56:38.423Z,39.34
2018-05-10T02:57:47.621Z,39.62
2018-05-10T02:58:56.796Z,39.62
2018-05-10T03:00:06.479Z,39.62
2018-05-10T03:01:15.906Z,39.82
2018-05-10T03:02:24.844Z,39.72
2018-05-10T03:03:33.742Z,39.72
2018-05-10T03:04:43.464Z,39.34
2018-05-10T03:05:52.646Z,39.72
2018-05-10T03:07:02.365Z,39.72
2018-05-10T03:08:12.068Z,39.43
2018-05-10T03:09:21.259Z,39.53
2018-05-10T03:10:30.500Z,39.72
2018-05-10T03:11:39.710Z,39.62
2018-05-10T03:12:49.157Z,39.34
2018-05-10T03:13:58.349Z,39.62
2018-05-10T03:15:07.501Z,39.62
2018-05-10T03:16:16.910Z,39.82
2018-05-10T03:17:26.088Z,39.34
2018-05-10T03:18:35.271Z,39.62
2018-05-10T03:19:44.709Z,39.72
2018-05-10T03:20:54.122Z,39.72
2018-05-10T03:22:03.549Z,39.72
2018-05-10T03:23:12.735Z,39.34
2018-05-10T03:24:22.415Z,39.43
2018-05-10T03:25:31.898Z,39.72
2018-05-10T03:26:40.812Z,39.51
2018-05-10T03:27:50.531Z,39.43
2018-05-10T03:29:00.261Z,39.53
2018-05-10T03:30:10.237Z,39.53
2018-05-10T03:31:19.941Z,39.82
2018-05-10T03:32:28.869Z,39.53
2018-05-10T03:33:38.808Z,39.92
2018-05-10T03:34:48.501Z,39.43
2018-05-10T03:35:58.180Z,39.62
2018-05-10T03:37:07.638Z,39.43
2018-05-10T03:38:16.811Z,39.34
2018-05-10T03:39:25.981Z,39.34
2018-05-10T03:40:36.199Z,39.34
2018-05-10T03:41:44.782Z,39.7
2018-05-10T03:42:53.698Z,39.72
2018-05-10T03:44:03.102Z,39.41
2018-05-10T03:45:12.785Z,39.53
2018-05-10T03:46:21.824Z,39.43
2018-05-10T03:47:31.769Z,39.43
2018-05-10T03:48:40.686Z,39.34
2018-05-10T03:49:49.853Z,39.62
2018-05-10T03:50:59.030Z,39.72
2018-05-10T03:52:08.982Z,39.43
2018-05-10T03:53:18.718Z,39.72
2018-05-10T03:54:28.218Z,39.62
2018-05-10T03:55:37.371Z,39.72
2018-05-10T03:56:46.553Z,39.72
2018-05-10T03:57:56.035Z,39.34
2018-05-10T03:59:05.741Z,39.72
2018-05-10T04:00:15.424Z,39.72
2018-05-10T04:01:24.863Z,39.72
2018-05-10T04:02:33.791Z,39.53
2018-05-10T04:03:43.217Z,39.51
2018-05-10T04:04:52.657Z,39.43
2018-05-10T04:06:01.570Z,39.53
2018-05-10T04:07:11.626Z,39.53
2018-05-10T04:08:21.058Z,39.51
2018-05-10T04:09:30.779Z,39.62
2018-05-10T04:10:40.195Z,39.34
2018-05-10T04:11:50.132Z,39.53
2018-05-10T04:12:59.556Z,39.62
2018-05-10T04:14:08.733Z,39.61
2018-05-10T04:15:18.416Z,39.51
2018-05-10T04:16:27.841Z,39.53
2018-05-10T04:17:37.280Z,39.53
2018-05-10T04:18:46.445Z,39.51
2018-05-10T04:19:55.871Z,39.7
2018-05-10T04:21:05.569Z,39.72
2018-05-10T04:22:14.479Z,39.51
2018-05-10T04:23:23.950Z,39.53
2018-05-10T04:24:33.357Z,39.61
2018-05-10T04:25:42.828Z,39.61
2018-05-10T04:26:52.237Z,39.51
2018-05-10T04:28:01.922Z,39.24
2018-05-10T04:29:11.585Z,39.61
2018-05-10T04:30:21.532Z,39.61
2018-05-10T04:31:30.965Z,39.53
2018-05-10T04:32:40.424Z,39.43
2018-05-10T04:33:49.857Z,39.51
2018-05-10T04:34:58.761Z,39.61
2018-05-10T04:36:07.962Z,39.51
2018-05-10T04:37:17.663Z,39.61
2018-05-10T04:38:26.856Z,39.7
2018-05-10T04:39:36.582Z,39.53
2018-05-10T04:40:45.756Z,39.51
2018-05-10T04:41:54.936Z,39.72
2018-05-10T04:43:04.632Z,39.7
2018-05-10T04:44:13.810Z,39.53
2018-05-10T04:45:23.256Z,39.7
2018-05-10T04:46:32.692Z,39.7
2018-05-10T04:47:41.605Z,39.7
2018-05-10T04:48:50.782Z,39.72
2018-05-10T04:50:00.627Z,39.51
2018-05-10T04:51:10.340Z,39.62
2018-05-10T04:52:20.295Z,39.7
2018-05-10T04:53:29.738Z,39.61
2018-05-10T04:54:38.910Z,39.61
2018-05-10T04:55:48.455Z,39.61
2018-05-10T04:56:57.646Z,39.72
2018-05-10T04:58:07.090Z,39.7
2018-05-10T04:59:16.537Z,39.53
2018-05-10T05:00:26.235Z,39.62
2018-05-10T05:01:36.166Z,39.62
2018-05-10T05:02:45.852Z,39.53
2018-05-10T05:03:55.528Z,39.62
2018-05-10T05:05:04.775Z,39.51
2018-05-10T05:06:14.296Z,39.51
2018-05-10T05:07:23.737Z,39.62
2018-05-10T05:08:32.907Z,39.61
2018-05-10T05:09:42.752Z,39.61
2018-05-10T05:10:51.789Z,39.7
2018-05-10T05:12:00.773Z,39.7
2018-05-10T05:13:09.617Z,39.7
2018-05-10T05:14:19.054Z,39.7
2018-05-10T05:15:28.477Z,39.61
2018-05-10T05:16:37.909Z,39.7
2018-05-10T05:17:47.587Z,39.7
2018-05-10T05:18:56.780Z,39.61
2018-05-10T05:20:05.971Z,39.7
2018-05-10T05:21:15.413Z,39.41
2018-05-10T05:22:24.870Z,39.7
2018-05-10T05:23:33.512Z,39.8
2018-05-10T05:24:42.716Z,39.7
2018-05-10T05:25:52.654Z,39.32
2018-05-10T05:27:02.083Z,39.7
2018-05-10T05:28:12.079Z,39.41
2018-05-10T05:29:21.807Z,39.32
2018-05-10T05:30:31.221Z,39.7
2018-05-10T05:31:40.405Z,39.32
2018-05-10T05:32:49.733Z,39.12
2018-05-10T05:33:58.646Z,39.8
2018-05-10T05:35:08.139Z,39.32
2018-05-10T05:36:17.868Z,39.12
2018-05-10T05:37:27.281Z,39.03
2018-05-10T05:38:36.742Z,39.03
2018-05-10T05:39:45.924Z,39.03
2018-05-10T05:40:55.399Z,39.22
2018-05-10T05:42:04.594Z,39.12
2018-05-10T05:43:14.825Z,39.12
2018-05-10T05:44:25.032Z,39.41
2018-05-10T05:45:33.956Z,39.7
2018-05-10T05:46:42.887Z,39.12
2018-05-10T05:47:52.071Z,39.32
2018-05-10T05:49:01.793Z,39.03
2018-05-10T05:50:11.235Z,39.22
2018-05-10T05:51:21.309Z,39.12
2018-05-10T05:52:31.058Z,39.12
2018-05-10T05:53:40.235Z,39.12
2018-05-10T05:54:49.912Z,39.32
2018-05-10T05:55:59.720Z,39.12
2018-05-10T05:57:09.173Z,39.22
2018-05-10T05:58:18.893Z,39.03
2018-05-10T05:59:28.334Z,39.22
2018-05-10T06:00:37.266Z,39.32
2018-05-10T06:01:46.694Z,39.22
2018-05-10T06:02:56.135Z,39.22
2018-05-10T06:04:05.063Z,39.22
2018-05-10T06:05:14.527Z,39.12
2018-05-10T06:06:23.448Z,39.03
2018-05-10T06:07:33.177Z,39.32
2018-05-10T06:08:42.733Z,39.22
2018-05-10T06:09:52.803Z,39.12
2018-05-10T06:11:02.777Z,39.03
2018-05-10T06:12:11.943Z,39.12
2018-05-10T06:13:21.366Z,39.12
2018-05-10T06:14:31.071Z,39.03
2018-05-10T06:15:40.697Z,39.03
2018-05-10T06:16:50.963Z,39.03
2018-05-10T06:18:00.669Z,39.03
2018-05-10T06:19:10.200Z,39.12
2018-05-10T06:20:19.178Z,39.12
2018-05-10T06:21:28.373Z,39.22
2018-05-10T06:22:37.797Z,39.22
2018-05-10T06:23:47.225Z,39.22
2018-05-10T06:24:56.787Z,39.03
2018-05-10T06:26:06.930Z,39.12
2018-05-10T06:27:16.105Z,39.12
2018-05-10T06:28:25.821Z,39.03
2018-05-10T06:29:35.489Z,39.22
2018-05-10T06:30:44.673Z,39.12
2018-05-10T06:31:54.616Z,39.03
2018-05-10T06:33:04.323Z,39.22
2018-05-10T06:34:13.519Z,39.03
2018-05-10T06:35:22.227Z,39.22
2018-05-10T06:36:31.923Z,39.22
2018-05-10T06:37:41.394Z,39.22
2018-05-10T06:38:50.847Z,39.03
2018-05-10T06:40:00.331Z,39.51
2018-05-10T06:41:09.799Z,39.03
2018-05-10T06:42:20.612Z,39.03
2018-05-10T06:43:29.789Z,39.41
2018-05-10T06:44:39.825Z,39.41
2018-05-10T06:45:49.314Z,39.12
2018-05-10T06:46:59.381Z,39.32
2018-05-10T06:48:09.138Z,39.03
2018-05-10T06:49:18.821Z,39.12
2018-05-10T06:50:28.030Z,39.03
2018-05-10T06:51:37.496Z,39.32
2018-05-10T06:52:46.693Z,39.32
2018-05-10T06:53:56.173Z,39.41
2018-05-10T06:55:05.624Z,39.41
2018-05-10T06:56:14.827Z,39.51
2018-05-10T06:57:24.007Z,39.51
2018-05-10T06:58:33.684Z,39.41
2018-05-10T06:59:43.181Z,39.51
2018-05-10T07:00:53.163Z,39.61
2018-05-10T07:02:02.962Z,39.51
2018-05-10T07:03:12.428Z,39.51
2018-05-10T07:04:22.284Z,39.61
2018-05-10T07:05:31.520Z,39.61
2018-05-10T07:06:40.712Z,39.51
2018-05-10T07:07:50.212Z,39.61
2018-05-10T07:09:00.707Z,39.61
2018-05-10T07:10:10.199Z,39.61
2018-05-10T07:11:19.185Z,39.61
2018-05-10T07:12:29.283Z,39.61
2018-05-10T07:13:38.954Z,39.51
2018-05-10T07:14:48.384Z,39.51
2018-05-10T07:15:58.514Z,39.51
2018-05-10T07:17:07.966Z,39.61
2018-05-10T07:18:17.391Z,39.61
2018-05-10T07:19:26.808Z,39.51
2018-05-10T07:20:36.236Z,39.51
2018-05-10T07:21:45.675Z,39.41
2018-05-10T07:22:55.346Z,39.61
2018-05-10T07:24:05.036Z,39.61
2018-05-10T07:25:14.964Z,39.61
2018-05-10T07:26:24.706Z,39.61
2018-05-10T07:27:33.924Z,39.22
2018-05-10T07:28:43.350Z,39.51
2018-05-10T07:29:52.590Z,39.41
2018-05-10T07:31:01.752Z,39.41
2018-05-10T07:32:11.753Z,39.41
2018-05-10T07:33:20.671Z,39.32
2018-05-10T07:34:30.616Z,39.41
2018-05-10T07:35:39.795Z,39.22
2018-05-10T07:36:48.978Z,39.32
2018-05-10T07:37:58.758Z,39.41
2018-05-10T07:39:08.198Z,39.32
2018-05-10T07:40:17.401Z,39.32
2018-05-10T07:41:27.336Z,39.22
2018-05-10T07:42:37.010Z,39.12
2018-05-10T07:43:46.217Z,39.12
2018-05-10T07:44:55.383Z,39.03
2018-05-10T07:46:04.795Z,39.12
2018-05-10T07:47:15.115Z,39.03
2018-05-10T07:48:25.153Z,39.12
2018-05-10T07:49:34.058Z,39.32
2018-05-10T07:50:42.969Z,38.93
2018-05-10T07:51:52.941Z,38.93
2018-05-10T07:53:02.715Z,39.12
2018-05-10T07:54:12.644Z,38.93
2018-05-10T07:55:22.087Z,38.93
2018-05-10T07:56:31.748Z,39.03
2018-05-10T07:57:41.427Z,39.12
2018-05-10T07:58:50.893Z,39.12
2018-05-10T08:00:00.318Z,39.22
2018-05-10T08:01:09.543Z,39.12
2018-05-10T08:02:19.301Z,38.83
2018-05-10T08:03:28.847Z,39.22
2018-05-10T08:04:38.812Z,39.03
2018-05-10T08:05:48.805Z,38.93
2018-05-10T08:06:58.544Z,38.73
2018-05-10T08:08:07.717Z,38.93
2018-05-10T08:09:17.853Z,38.83
2018-05-10T08:10:27.373Z,38.73
2018-05-10T08:11:37.182Z,38.73
2018-05-10T08:12:46.380Z,38.73
2018-05-10T08:13:56.082Z,38.73
2018-05-10T08:15:05.531Z,38.83
2018-05-10T08:16:15.235Z,38.93
2018-05-10T08:17:24.192Z,38.93
2018-05-10T08:18:33.638Z,38.83
2018-05-10T08:19:42.807Z,38.93
2018-05-10T08:20:51.979Z,38.93
2018-05-10T08:22:01.683Z,38.93
2018-05-10T08:23:10.881Z,38.83
2018-05-10T08:24:20.194Z,38.93
2018-05-10T08:25:29.923Z,38.83
2018-05-10T08:26:39.361Z,38.93
2018-05-10T08:27:49.082Z,38.93
2018-05-10T08:28:58.067Z,38.83
2018-05-10T08:30:07.405Z,38.73
2018-05-10T08:31:16.674Z,39.03
2018-05-10T08:32:25.862Z,38.64
2018-05-10T08:33:35.360Z,38.93
2018-05-10T08:34:44.864Z,38.83
2018-05-10T08:35:54.834Z,38.73
2018-05-10T08:37:03.772Z,38.64
2018-05-10T08:38:13.274Z,38.83
2018-05-10T08:39:22.459Z,38.64
2018-05-10T08:40:31.913Z,38.73
2018-05-10T08:41:41.355Z,38.83
2018-05-10T08:42:50.845Z,38.93
2018-05-10T08:44:00.316Z,38.93
2018-05-10T08:45:10.203Z,38.73
2018-05-10T08:46:20.103Z,38.73
2018-05-10T08:47:29.539Z,38.64
2018-05-10T08:48:38.991Z,38.64
2018-05-10T08:49:48.523Z,38.54
2018-05-10T08:50:57.777Z,38.54
2018-05-10T08:52:07.083Z,38.73
2018-05-10T08:53:16.301Z,38.45
2018-05-10T08:54:26.018Z,38.64
2018-05-10T08:55:35.180Z,38.45
2018-05-10T08:56:44.092Z,38.45
2018-05-10T08:57:53.528Z,38.45
2018-05-10T08:59:04.149Z,38.25
2018-05-10T09:00:13.708Z,38.64
2018-05-10T09:01:24.045Z,38.45
2018-05-10T09:02:33.795Z,38.45
2018-05-10T09:03:43.542Z,38.35
2018-05-10T09:04:53.026Z,38.35
2018-05-10T09:06:02.210Z,38.35
2018-05-10T09:07:11.673Z,38.64
2018-05-10T09:08:21.015Z,38.45
2018-05-10T09:09:30.316Z,38.54
2018-05-10T09:10:39.758Z,38.45
2018-05-10T09:11:49.204Z,38.45
2018-05-10T09:12:58.895Z,38.54
2018-05-10T09:14:08.845Z,38.45
2018-05-10T09:15:18.097Z,38.45
2018-05-10T09:16:27.522Z,38.54
2018-05-10T09:17:36.749Z,38.73
2018-05-10T09:18:45.718Z,38.83
2018-05-10T09:19:55.425Z,38.64
2018-05-10T09:21:04.374Z,38.45
2018-05-10T09:22:14.361Z,38.45
2018-05-10T09:23:23.794Z,38.45
2018-05-10T09:24:33.555Z,38.45
2018-05-10T09:25:43.016Z,38.37
2018-05-10T09:26:52.500Z,38.35
2018-05-10T09:28:01.733Z,38.46
2018-05-10T09:29:11.156Z,38.37
2018-05-10T09:30:20.353Z,38.25
2018-05-10T09:31:29.824Z,38.45
2018-05-10T09:32:39.801Z,38.46
2018-05-10T09:33:49.567Z,38.15
2018-05-10T09:34:59.159Z,38.46
2018-05-10T09:36:09.105Z,38.25
2018-05-10T09:37:18.324Z,38.37
2018-05-10T09:38:28.013Z,38.35
2018-05-10T09:39:37.236Z,38.27
2018-05-10T09:40:46.560Z,38.27
2018-05-10T09:41:56.413Z,38.37
2018-05-10T09:43:05.846Z,38.27
2018-05-10T09:44:15.015Z,38.27
2018-05-10T09:45:24.744Z,38.27
2018-05-10T09:46:34.690Z,38.27
2018-05-10T09:47:44.372Z,38.46
2018-05-10T09:48:54.090Z,38.17
2018-05-10T09:50:03.024Z,38.25
2018-05-10T09:51:12.208Z,38.27
2018-05-10T09:52:21.392Z,38.17
2018-05-10T09:53:30.624Z,38.27
2018-05-10T09:54:39.815Z,38.17
2018-05-10T09:55:49.498Z,38.37
2018-05-10T09:56:58.948Z,38.37
2018-05-10T09:58:08.191Z,38.25
2018-05-10T09:59:18.077Z,38.25
2018-05-10T10:00:27.798Z,38.37
2018-05-10T10:01:37.513Z,38.25
2018-05-10T10:02:47.190Z,38.37
2018-05-10T10:03:56.865Z,38.37
2018-05-10T10:05:06.031Z,38.27
2018-05-10T10:06:15.743Z,38.27
2018-05-10T10:07:25.387Z,38.46
2018-05-10T10:08:34.821Z,38.37
2018-05-10T10:09:43.987Z,38.37
2018-05-10T10:10:53.202Z,38.37
2018-05-10T10:12:02.654Z,38.64
2018-05-10T10:13:12.342Z,38.56
2018-05-10T10:14:22.173Z,38.56
2018-05-10T10:15:31.374Z,38.56
2018-05-10T10:16:41.202Z,38.76
2018-05-10T10:17:50.646Z,38.46
2018-05-10T10:19:00.331Z,38.56
2018-05-10T10:20:10.363Z,38.66
2018-05-10T10:21:19.276Z,38.66
2018-05-10T10:22:28.730Z,38.56
2018-05-10T10:23:38.519Z,38.76
2018-05-10T10:24:48.475Z,38.76
2018-05-10T10:25:57.907Z,38.76
2018-05-10T10:27:07.603Z,38.54
2018-05-10T10:28:17.552Z,38.54
2018-05-10T10:29:27.012Z,38.66
2018-05-10T10:30:36.443Z,38.66
2018-05-10T10:31:45.420Z,38.56
2018-05-10T10:32:54.337Z,38.56
2018-05-10T10:34:03.500Z,38.56
2018-05-10T10:35:13.233Z,38.54
2018-05-10T10:36:22.733Z,38.56
2018-05-10T10:37:32.188Z,38.56
2018-05-10T10:38:41.355Z,38.66
2018-05-10T10:39:50.827Z,38.46
2018-05-10T10:41:00.248Z,38.66
2018-05-10T10:42:09.426Z,38.46
2018-05-10T10:43:18.855Z,38.66
2018-05-10T10:44:28.065Z,38.54
2018-05-10T10:45:37.781Z,38.46
2018-05-10T10:46:46.961Z,38.46
2018-05-10T10:47:56.717Z,38.46
2018-05-10T10:49:06.686Z,38.46
2018-05-10T10:50:16.394Z,38.46
2018-05-10T10:51:25.589Z,38.46
2018-05-10T10:52:35.273Z,38.66
2018-05-10T10:53:44.711Z,38.37
2018-05-10T10:54:54.590Z,38.37
2018-05-10T10:56:03.247Z,38.37
2018-05-10T10:57:12.478Z,38.46
2018-05-10T10:58:22.294Z,38.37
2018-05-10T10:59:31.457Z,38.37
2018-05-10T11:00:41.257Z,38.37
2018-05-10T11:01:50.828Z,38.45
2018-05-10T11:03:00.710Z,38.37
2018-05-10T11:04:09.649Z,38.46
2018-05-10T11:05:19.359Z,38.46
2018-05-10T11:06:29.300Z,38.27
2018-05-10T11:07:38.989Z,38.37
2018-05-10T11:08:48.247Z,38.46
2018-05-10T11:09:57.401Z,38.46
2018-05-10T11:11:06.892Z,38.46
2018-05-10T11:12:16.312Z,38.45
2018-05-10T11:13:25.795Z,38.46
2018-05-10T11:14:35.478Z,38.46
2018-05-10T11:15:44.931Z,38.37
2018-05-10T11:16:54.109Z,38.46
2018-05-10T11:18:03.698Z,38.37
2018-05-10T11:19:12.758Z,38.37
2018-05-10T11:20:21.725Z,38.46
2018-05-10T11:21:31.172Z,38.37
2018-05-10T11:22:40.860Z,38.46
2018-05-10T11:23:50.678Z,38.45
2018-05-10T11:25:00.680Z,38.27
2018-05-10T11:26:09.852Z,38.46
2018-05-10T11:27:18.796Z,38.27
2018-05-10T11:28:27.863Z,38.37
2018-05-10T11:29:36.830Z,38.37
2018-05-10T11:30:46.274Z,38.46
2018-05-10T11:31:55.798Z,38.46
2018-05-10T11:33:05.511Z,38.46
2018-05-10T11:34:15.720Z,38.46
2018-05-10T11:35:25.183Z,38.54
2018-05-10T11:36:34.605Z,38.46
2018-05-10T11:37:44.060Z,38.46
2018-05-10T11:38:55.256Z,38.45
2018-05-10T11:40:07.234Z,38.46
2018-05-10T11:41:16.945Z,38.37
2018-05-10T11:42:26.397Z,38.46
2018-05-10T11:43:35.808Z,38.46
2018-05-10T11:44:45.240Z,38.46
2018-05-10T11:45:54.951Z,38.46
2018-05-10T11:47:04.645Z,38.46
2018-05-10T11:48:13.823Z,38.46
2018-05-10T11:49:23.511Z,38.37
2018-05-10T11:50:32.712Z,38.27
2018-05-10T11:51:42.126Z,38.45
2018-05-10T11:52:51.901Z,38.46
2018-05-10T11:54:01.881Z,38.56
2018-05-10T11:55:11.589Z,38.35
2018-05-10T11:56:20.784Z,38.37
2018-05-10T11:57:30.196Z,38.35
2018-05-10T11:58:40.137Z,38.35
2018-05-10T11:59:49.630Z,38.46
2018-05-10T12:00:59.065Z,38.46
2018-05-10T12:02:08.799Z,38.37
2018-05-10T12:03:18.513Z,38.45
2018-05-10T12:04:27.946Z,38.64
2018-05-10T12:05:37.669Z,38.66
2018-05-10T12:06:47.109Z,38.66
2018-05-10T12:07:56.821Z,38.37
2018-05-10T12:09:06.042Z,38.37
2018-05-10T12:10:15.206Z,38.27
2018-05-10T12:11:24.940Z,38.27
2018-05-10T12:12:34.385Z,38.37
2018-05-10T12:13:44.100Z,38.76
2018-05-10T12:14:53.818Z,38.54
2018-05-10T12:16:03.328Z,38.54
2018-05-10T12:17:12.810Z,38.56
2018-05-10T12:18:22.591Z,38.56
2018-05-10T12:19:32.307Z,38.45
2018-05-10T12:20:41.747Z,38.45
2018-05-10T12:21:50.938Z,38.45
2018-05-10T12:23:00.942Z,38.54
2018-05-10T12:24:10.427Z,38.25
2018-05-10T12:25:20.123Z,38.56
2018-05-10T12:26:29.906Z,38.35
2018-05-10T12:27:39.643Z,38.15
2018-05-10T12:28:49.393Z,38.45
2018-05-10T12:29:58.862Z,38.17
2018-05-10T12:31:08.656Z,38.45
2018-05-10T12:32:18.345Z,38.25
2018-05-10T12:33:27.514Z,38.46
2018-05-10T12:34:36.420Z,38.37
2018-05-10T12:35:46.112Z,38.45
2018-05-10T12:36:55.277Z,38.37
2018-05-10T12:38:05.237Z,38.37
2018-05-10T12:39:14.170Z,38.37
2018-05-10T12:40:23.362Z,38.35
2018-05-10T12:41:32.880Z,38.37
2018-05-10T12:42:43.115Z,38.45
2018-05-10T12:43:52.059Z,38.45
2018-05-10T12:45:01.481Z,38.54
2018-05-10T12:46:11.212Z,38.54
2018-05-10T12:47:20.919Z,38.54
2018-05-10T12:48:30.112Z,38.45
2018-05-10T12:49:39.675Z,38.35
2018-05-10T12:50:49.403Z,38.45
2018-05-10T12:51:58.845Z,38.54
2018-05-10T12:53:08.544Z,38.25
2018-05-10T12:54:18.220Z,38.35
2018-05-10T12:55:27.665Z,38.35
2018-05-10T12:56:37.628Z,38.35
2018-05-10T12:57:47.334Z,38.45
2018-05-10T12:58:56.005Z,38.25
2018-05-10T13:00:05.176Z,38.35
2018-05-10T13:01:14.592Z,38.45
2018-05-10T13:02:24.462Z,38.45
2018-05-10T13:03:33.969Z,38.45
2018-05-10T13:04:43.210Z,38.35
2018-05-10T13:05:53.603Z,38.45
2018-05-10T13:07:03.041Z,38.35
2018-05-10T13:08:12.485Z,38.35
2018-05-10T13:09:21.743Z,38.54
2018-05-10T13:10:30.918Z,38.25
2018-05-10T13:11:40.612Z,38.45
2018-05-10T13:12:50.046Z,38.45
2018-05-10T13:13:58.707Z,38.45
2018-05-10T13:15:08.406Z,38.35
2018-05-10T13:16:18.263Z,38.45
2018-05-10T13:17:28.217Z,38.54
2018-05-10T13:18:37.910Z,38.54
2018-05-10T13:19:47.611Z,38.45
2018-05-10T13:20:57.060Z,38.54
2018-05-10T13:22:06.619Z,38.45
2018-05-10T13:23:16.076Z,38.45
2018-05-10T13:24:25.299Z,38.45
2018-05-10T13:25:34.505Z,38.35
2018-05-10T13:26:43.950Z,38.45
2018-05-10T13:27:53.681Z,38.35
2018-05-10T13:29:03.421Z,38.45
2018-05-10T13:30:12.930Z,38.45
2018-05-10T13:31:21.848Z,38.45
2018-05-10T13:32:31.558Z,38.45
2018-05-10T13:33:41.817Z,38.35
2018-05-10T13:34:52.654Z,38.35
2018-05-10T13:36:01.838Z,38.54
2018-05-10T13:37:11.829Z,38.64
2018-05-10T13:38:21.877Z,38.64
2018-05-10T13:39:31.609Z,38.45
2018-05-10T13:40:41.606Z,38.45
2018-05-10T13:41:51.130Z,38.45
2018-05-10T13:43:00.893Z,38.54
2018-05-10T13:44:10.597Z,38.64
2018-05-10T13:45:20.286Z,38.54
2018-05-10T13:46:29.450Z,38.54
2018-05-10T13:47:39.111Z,38.54
2018-05-10T13:48:48.612Z,38.45
2018-05-10T13:49:58.605Z,38.64
2018-05-10T13:51:08.037Z,38.54
2018-05-10T13:52:17.475Z,38.64
2018-05-10T13:53:26.909Z,38.45
2018-05-10T13:54:36.350Z,38.54
2018-05-10T13:55:46.305Z,38.54
2018-05-10T13:56:56.249Z,38.54
2018-05-10T13:58:06.436Z,38.54
2018-05-10T13:59:15.387Z,38.73
2018-05-10T14:00:25.156Z,38.35
2018-05-10T14:01:34.855Z,38.64
2018-05-10T14:02:44.289Z,38.35
2018-05-10T14:03:53.709Z,38.37
2018-05-10T14:05:02.876Z,38.35
2018-05-10T14:06:12.124Z,38.45
2018-05-10T14:07:21.818Z,38.45
2018-05-10T14:08:31.289Z,38.15
2018-05-10T14:09:40.717Z,38.27
2018-05-10T14:10:50.011Z,38.37
2018-05-10T14:11:59.202Z,38.17
2018-05-10T14:13:08.386Z,38.27
2018-05-10T14:14:18.092Z,38.27
2018-05-10T14:15:27.527Z,38.27
2018-05-10T14:16:37.278Z,38.25
2018-05-10T14:17:46.815Z,38.27
2018-05-10T14:18:56.268Z,38.27
2018-05-10T14:20:05.967Z,38.07
2018-05-10T14:21:15.145Z,38.27
2018-05-10T14:22:24.837Z,38.15
2018-05-10T14:23:34.261Z,38.27
2018-05-10T14:24:43.797Z,38.25
2018-05-10T14:25:53.222Z,38.27
2018-05-10T14:27:02.681Z,38.25
2018-05-10T14:28:11.885Z,38.27
2018-05-10T14:29:21.600Z,38.17
2018-05-10T14:30:31.071Z,38.27
2018-05-10T14:31:40.258Z,38.27
2018-05-10T14:32:50.513Z,38.25
2018-05-10T14:34:00.680Z,38.17
2018-05-10T14:35:10.467Z,38.27
2018-05-10T14:36:20.144Z,38.17
2018-05-10T14:37:29.383Z,38.27
2018-05-10T14:38:39.667Z,38.37
2018-05-10T14:39:49.628Z,38.17
2018-05-10T14:40:59.317Z,38.17
2018-05-10T14:42:09.031Z,38.37
2018-05-10T14:43:18.240Z,38.27
2018-05-10T14:44:27.652Z,38.17
2018-05-10T14:45:36.565Z,38.17
2018-05-10T14:46:46.597Z,38.27
2018-05-10T14:47:56.418Z,38.27
2018-05-10T14:49:05.882Z,38.17
2018-05-10T14:50:15.330Z,38.37
2018-05-10T14:51:25.034Z,38.17
2018-05-10T14:52:34.727Z,38.17
2018-05-10T14:53:44.197Z,38.17
2018-05-10T14:54:53.394Z,38.07
2018-05-10T14:56:02.843Z,38.27